Airports Israel Eilat-Ramon Airport

Eilat-Ramon Airport (LLER / ETM)

Facts about Eilat-Ramon Airport

Name Eilat-Ramon Airport
City Eilat
Country Israel
ICAO code LLER
IATA code ETM
Elevation 87.7824 meters (288 feet)

Weather

METAR

Metar data retrieved Friday, 19 July 2024 at 23:55 UTC (8 minutes ago)

LLER 191450Z 02015KT CAVOK 41/07 Q1000

Live traffic

Navigraph Charts (account required)